Terminal Aerodrome Forecast
Issued by NWS Twin Cities, MN

Home | Current Version | Previous Version | Graphics & Text | Print | Product List | Glossary On
Versions: 1 2 3 4 5 6 7 8 9 10 11 12 13 14 15 16 17 18 19 20 21 22 23 24 25 26
442
FTUS43 KMPX 260256 AAA
TAFMSP
TAF AMD
KMSP 260256Z 2603/2706 25004KT P6SM SKC
     FM260600 21003KT P6SM SCT100
     FM261800 22008KT P6SM SCT250
     FM270200 20003KT P6SM BKN120=

USA.gov is the U.S. government's official web portal to all federal, state and local government web resources and services.